หน้าหลัก
METAR-TAF:

METAR-TAF

ท่าอากาศยาน :

ลือเบค, เยอรมนี

ละติจูด: 53-49N, ลองจิจูด: 010-42E, ความสูง: 14 ม.

การสังเกตสภาพอากาศปัจจุบัน

รายงานได้ทำขึ้นเมื่อ 38 นาทีที่แล้ว ณ เวลา 10:50 UTC
ลม 4 นอตจากตะวันตก, แปรผันระหว่างใต้ และเหนือ/ตะวันตกเฉียงเหนือ
อุณหภูมิ 20°C
ความชื้น 68%
ความกดอากาศ 1024 hPa
ทัศนวิสัย 10 กม. หรือมากกว่า
มีเมฆเป็นส่วนมากเว้นเป็นระยะที่ความสูง 2500 ฟุต

METAR: EDHL 181050Z 28004KT 170V340 9999 BKN025 20/14 Q1024

เวลา: 13:28 (11:28 UTC)

การพยากรณ์

รายงานได้ทำขึ้นเมื่อ 3 ชั่วโมงและ 28 นาทีที่แล้ว ณ เวลา 08:00 UTC
การพยากรณ์มีผลตั้งแต่วันที่ 18 ณ เวลา 09 UTC จนถึงวันที่ 18 ณ เวลา 18 UTC
ลม 5 นอตจากตะวันตก/ตะวันตกเฉียงใต้
ทัศนวิสัย 10 กม. หรือมากกว่า
มีเมฆเป็นส่วนมากเว้นเป็นระยะที่ความสูง 2500 ฟุต

TAF: EDHL 180800Z 1809/1818 25005KT 9999 BKN025

สังเกตการณ์สภาพอากาศและพยากรณ์อากาศของสนามบินมากกว่า 4000 แห่ง (รายงาน METAR และ TAF).

สถานีที่ดูได้จะแสดงไว้ด้วยจุดสีเหลืองและสีแดงบนแผนที่.

เลื่อนเมาส์ไปเหนือจุดเพื่อดูชื่อสถานี.

แล้วคลิกเพื่อดูสังเกตการณ์และการพยากรณ์สภาพอากาศ.

ในการเปลี่ยนแผนที่: คลิกที่ปุ่มสีเขียวที่มีกากบาทสีดำเพื่อซูมเข้า; ที่ปุ่มสีเขียวที่มีขีดเพื่อซูมออก; หรือที่ลูกศรสีเขียวเพื่อไปยังแผนที่ที่อยู่ติดกัน.


METAR-TAF: